Time;durP1;ratioP1;P1;durP2;ratioP2;P2;SDS_P1;SDS_P2;PMS_P1;PMS_P2;Temp;Humidity;BMP_temperature;BMP_pressure;BME280_temperature;BME280_humidity;BME280_pressure;Samples;Min_cycle;Max_cycle;Signal;HPM_P1;HPM_P2
2023/09/02 00:01:36;;;;;;;9.33;8.63;;;;;;;25.38;42.83;95471.47;6116946;28;108926;-67
2023/09/02 00:04:39;;;;;;;9.53;8.93;;;;;;;25.34;42.53;95473.13;6127546;28;108938;-68
2023/09/02 00:07:42;;;;;;;9.20;8.50;;;;;;;25.27;42.65;95470.16;6118889;28;108623;-68
2023/09/02 00:10:45;;;;;;;9.63;9.03;;;;;;;25.31;42.64;95471.09;6122739;28;108827;-68
2023/09/02 00:13:50;;;;;;;10.00;9.30;;;;;;;25.31;42.50;95468.41;6117248;28;108985;-68
2023/09/02 00:16:53;;;;;;;9.90;9.00;;;;;;;25.32;42.68;95470.00;6120915;28;108747;-69
2023/09/02 00:19:56;;;;;;;10.23;9.50;;;;;;;25.31;42.61;95466.53;6121504;28;109210;-69
2023/09/02 00:22:59;;;;;;;9.70;9.00;;;;;;;25.33;42.78;95468.88;6120002;28;110473;-68
2023/09/02 00:26:02;;;;;;;9.50;8.80;;;;;;;25.34;42.69;95467.78;6113885;28;109345;-68
2023/09/02 00:29:07;;;;;;;9.70;9.10;;;;;;;25.31;42.71;95471.09;6117794;28;109510;-68
2023/09/02 00:32:10;;;;;;;9.35;8.70;;;;;;;25.32;42.67;95464.63;6119508;28;108695;-68
2023/09/02 00:35:13;;;;;;;9.70;9.10;;;;;;;25.13;43.06;95462.28;6087030;28;108912;-68
2023/09/02 00:38:16;;;;;;;9.82;9.18;;;;;;;24.94;43.63;95459.91;6113256;28;110552;-67
2023/09/02 00:41:26;;;;;;;10.00;9.30;;;;;;;24.91;43.58;95460.53;6117373;28;108771;-68
2023/09/02 00:44:31;;;;;;;9.98;9.30;;;;;;;24.91;43.57;95471.25;6131289;28;108700;-69
2023/09/02 00:47:34;;;;;;;9.93;9.23;;;;;;;25.03;43.37;95473.28;6104973;28;109236;-68
2023/09/02 00:50:37;;;;;;;9.80;9.10;;;;;;;25.07;43.26;95476.94;6115317;28;109023;-68
2023/09/02 00:53:40;;;;;;;9.65;8.95;;;;;;;25.13;43.10;95480.25;6129160;28;109052;-67
2023/09/02 00:56:43;;;;;;;10.10;9.40;;;;;;;25.09;43.00;95475.50;6110913;28;108828;-67
2023/09/02 00:59:48;;;;;;;9.40;8.80;;;;;;;25.13;42.79;95475.66;6112200;28;109310;-67
2023/09/02 01:02:53;;;;;;;9.48;8.88;;;;;;;25.18;42.67;95475.50;6122881;28;108663;-68
2023/09/02 01:05:56;;;;;;;9.60;8.90;;;;;;;25.22;42.64;95476.47;6126998;28;109908;-68
2023/09/02 01:09:00;;;;;;;9.48;8.88;;;;;;;25.21;42.75;95474.09;6123211;28;109859;-68
2023/09/02 01:12:04;;;;;;;10.40;9.60;;;;;;;25.17;42.66;95467.78;6117099;28;108665;-68
2023/09/02 01:15:09;;;;;;;9.52;8.90;;;;;;;25.14;42.96;95466.53;6116792;28;108824;-68
2023/09/02 01:18:13;;;;;;;9.82;9.13;;;;;;;25.16;42.79;95468.88;6126779;28;108684;-68
2023/09/02 01:21:44;;;;;;;9.20;8.60;;;;;;;25.15;42.82;95470.78;6112847;28;108782;-68
2023/09/02 01:25:11;;;;;;;10.43;9.52;;;;;;;25.16;42.86;95472.34;6133038;28;108661;-68
2023/09/02 01:28:20;;;;;;;9.35;8.75;;;;;;;25.12;43.08;95474.09;6102889;28;108635;-67
2023/09/02 01:31:25;;;;;;;9.70;9.00;;;;;;;25.09;42.95;95472.03;6106204;28;108752;-68
2023/09/02 01:34:30;;;;;;;10.90;10.10;;;;;;;25.08;42.78;95470.47;6131579;28;108691;-67
2023/09/02 01:37:34;;;;;;;11.20;10.40;;;;;;;25.07;43.01;95476.94;6120241;28;109286;-68
2023/09/02 01:40:40;;;;;;;11.25;10.45;;;;;;;25.01;43.05;95487.00;6122459;28;109106;-67
2023/09/02 01:43:45;;;;;;;10.52;9.73;;;;;;;25.02;43.05;95482.41;6086572;28;108695;-65
2023/09/02 01:46:49;;;;;;;10.60;9.80;;;;;;;25.00;42.92;95481.94;6116504;28;108651;-68
2023/09/02 01:49:53;;;;;;;10.27;9.48;;;;;;;25.00;42.78;95482.75;6127486;28;108775;-67
2023/09/02 01:52:58;;;;;;;10.20;9.50;;;;;;;24.94;43.08;95477.84;6110741;28;108848;-68
2023/09/02 01:56:03;;;;;;;10.13;9.43;;;;;;;24.91;43.10;95476.59;6115395;28;109262;-67
2023/09/02 01:59:07;;;;;;;9.47;8.77;;;;;;;24.89;42.98;95480.69;6128436;28;108809;-68
2023/09/02 02:02:11;;;;;;;9.70;9.00;;;;;;;24.79;43.34;95484.44;6112300;28;108592;-68
2023/09/02 02:05:18;;;;;;;9.40;8.80;;;;;;;24.81;43.26;95479.56;6105211;28;109184;-68
2023/09/02 02:08:30;;;;;;;9.30;8.70;;;;;;;24.86;43.07;95481.28;6112512;28;108913;-68
2023/09/02 02:11:36;;;;;;;10.20;9.40;;;;;;;24.88;43.22;95487.94;6117165;28;108988;-67
2023/09/02 02:14:41;;;;;;;9.70;9.10;;;;;;;24.92;42.88;95486.19;6121643;28;108719;-68
2023/09/02 02:17:44;;;;;;;9.65;8.95;;;;;;;24.99;42.50;95491.09;6106578;28;109484;-68
2023/09/02 02:20:58;;;;;;;9.13;8.48;;;;;;;24.99;42.83;95491.09;6111700;28;108801;-68
2023/09/02 02:24:01;;;;;;;8.70;8.10;;;;;;;24.97;42.89;95494.06;6113010;28;108892;-68
2023/09/02 02:27:04;;;;;;;9.37;8.70;;;;;;;24.96;42.76;95489.81;6120386;28;108723;-68
2023/09/02 02:30:10;;;;;;;10.20;9.50;;;;;;;24.98;42.77;95492.97;6118739;28;109259;-68
2023/09/02 02:33:13;;;;;;;11.90;11.00;;;;;;;24.99;42.81;95499.91;6123133;28;109411;-71
2023/09/02 02:36:16;;;;;;;12.23;11.35;;;;;;;24.99;42.59;95494.56;6128290;28;109813;-67
2023/09/02 02:39:21;;;;;;;12.80;11.90;;;;;;;24.96;42.96;95495.19;6112601;28;108801;-69
2023/09/02 02:42:24;;;;;;;12.80;11.90;;;;;;;24.94;42.67;95489.34;6111571;28;108912;-68
2023/09/02 02:45:29;;;;;;;12.33;11.43;;;;;;;24.84;42.97;95494.22;6112260;28;108715;-68
2023/09/02 02:48:33;;;;;;;11.60;10.80;;;;;;;24.78;43.04;95483.66;6100414;28;109007;-68
2023/09/02 02:51:36;;;;;;;13.93;12.93;;;;;;;24.76;42.96;95491.22;6111789;28;109025;-68
2023/09/02 02:54:39;;;;;;;12.00;11.10;;;;;;;24.73;43.15;95491.06;6112173;28;109192;-65
2023/09/02 02:57:43;;;;;;;13.10;12.15;;;;;;;24.75;43.37;95494.19;6114076;28;108951;-66
2023/09/02 03:00:47;;;;;;;11.77;10.97;;;;;;;24.77;43.06;95495.47;6117255;28;108868;-65
2023/09/02 03:03:51;;;;;;;14.32;13.23;;;;;;;24.72;43.18;95500.19;6119614;28;109334;-65
2023/09/02 03:06:54;;;;;;;14.90;13.70;;;;;;;24.67;43.42;95489.56;6109728;28;109418;-67
2023/09/02 03:09:57;;;;;;;13.00;12.00;;;;;;;24.75;43.03;95494.19;6118974;28;109339;-67
2023/09/02 03:13:00;;;;;;;12.10;11.10;;;;;;;24.81;42.83;95500.97;6107827;28;109104;-67
2023/09/02 03:16:06;;;;;;;12.20;11.30;;;;;;;24.83;42.91;95496.09;6116034;28;109000;-64
2023/09/02 03:19:09;;;;;;;14.37;13.37;;;;;;;24.86;42.80;95506.19;6106614;28;108832;-64
2023/09/02 03:22:12;;;;;;;20.50;18.90;;;;;;;24.84;42.70;95504.91;6122956;28;110956;-64
2023/09/02 03:25:15;;;;;;;16.05;14.90;;;;;;;24.79;42.90;95503.97;6124362;28;108925;-65
2023/09/02 03:28:18;;;;;;;13.65;12.75;;;;;;;24.79;43.05;95505.84;6113937;28;108704;-65
2023/09/02 03:31:23;;;;;;;13.00;12.00;;;;;;;24.81;42.76;95505.53;6109623;28;108693;-69
2023/09/02 03:34:26;;;;;;;19.00;17.60;;;;;;;24.82;42.52;95505.22;6110638;28;109588;-65
2023/09/02 03:37:29;;;;;;;23.43;21.73;;;;;;;24.82;42.64;95507.13;6095151;28;109164;-65
2023/09/02 03:40:32;;;;;;;21.80;20.30;;;;;;;24.87;42.89;95507.00;6125102;28;108617;-66
2023/09/02 03:43:35;;;;;;;16.77;15.52;;;;;;;24.84;42.90;95504.91;6130533;28;109208;-65
2023/09/02 03:46:40;;;;;;;17.73;16.42;;;;;;;24.83;42.60;95511.38;6122614;28;109225;-66
2023/09/02 03:49:43;;;;;;;13.50;12.60;;;;;;;24.78;42.45;95505.06;6104458;28;109259;-66
2023/09/02 03:52:46;;;;;;;13.97;12.97;;;;;;;24.79;42.58;95509.31;6118896;28;108960;-65
2023/09/02 03:55:49;;;;;;;13.40;12.40;;;;;;;24.81;42.33;95509.00;6131773;28;109106;-67
2023/09/02 03:58:54;;;;;;;13.50;12.50;;;;;;;24.79;42.57;95513.88;6103320;28;110243;-68
2023/09/02 04:01:59;;;;;;;13.30;12.30;;;;;;;24.81;42.86;95513.56;6119215;28;109902;-66
2023/09/02 04:05:03;;;;;;;21.65;19.95;;;;;;;24.83;42.65;95508.69;6108024;28;108697;-68
2023/09/02 04:08:06;;;;;;;17.05;15.65;;;;;;;24.84;42.33;95507.59;6112797;28;109996;-68
2023/09/02 04:11:09;;;;;;;14.27;13.17;;;;;;;24.83;42.60;95508.69;6102816;28;109825;-68
2023/09/02 04:14:12;;;;;;;13.80;12.80;;;;;;;24.86;42.67;95516.88;6104804;28;109094;-68
2023/09/02 04:17:17;;;;;;;13.60;12.60;;;;;;;24.85;42.37;95517.97;6110486;28;111239;-69
2023/09/02 04:20:20;;;;;;;13.60;12.60;;;;;;;24.84;42.32;95521.75;6111860;28;108997;-69
2023/09/02 04:23:24;;;;;;;13.80;12.80;;;;;;;24.84;42.03;95513.72;6100077;28;109508;-67
2023/09/02 04:26:27;;;;;;;12.40;11.40;;;;;;;24.81;42.09;95514.38;6125195;28;108986;-68
2023/09/02 04:29:30;;;;;;;10.80;10.00;;;;;;;24.80;42.34;95515.47;6123013;28;108994;-69
2023/09/02 04:32:34;;;;;;;11.50;10.60;;;;;;;24.79;42.62;95516.56;6116038;28;108631;-68
2023/09/02 04:35:38;;;;;;;10.27;9.48;;;;;;;24.77;41.73;95524.13;6105958;28;108911;-69
2023/09/02 04:38:41;;;;;;;11.63;10.80;;;;;;;24.78;41.95;95515.78;6119149;28;109287;-69
2023/09/02 04:41:44;;;;;;;12.60;11.70;;;;;;;24.81;41.98;95524.28;6117289;28;108869;-69
2023/09/02 04:44:47;;;;;;;11.40;10.60;;;;;;;24.81;42.34;95519.72;6117242;28;109038;-69
2023/09/02 04:47:52;;;;;;;12.02;11.02;;;;;;;24.81;42.26;95525.06;6119777;28;109242;-68
2023/09/02 04:50:55;;;;;;;12.32;11.43;;;;;;;24.82;42.09;95520.50;6110109;28;108612;-69
2023/09/02 04:53:58;;;;;;;10.98;10.18;;;;;;;24.82;41.86;95526.66;6117795;28;108573;-70
2023/09/02 04:57:02;;;;;;;9.77;9.07;;;;;;;24.80;42.00;95536.88;6122212;28;108813;-71
2023/09/02 05:00:07;;;;;;;10.47;9.57;;;;;;;24.80;42.17;95536.88;6124768;28;109254;-68
2023/09/02 05:03:12;;;;;;;10.30;9.50;;;;;;;24.79;41.85;95533.41;6111444;28;108940;-69
2023/09/02 05:06:15;;;;;;;9.55;8.85;;;;;;;24.82;42.15;95531.22;6109736;28;108699;-68
2023/09/02 05:09:18;;;;;;;11.40;10.60;;;;;;;24.80;42.33;95536.88;6110871;28;108844;-69
2023/09/02 05:12:21;;;;;;;10.60;9.80;;;;;;;24.83;42.25;95536.25;6121634;28;108869;-68
2023/09/02 05:15:24;;;;;;;10.75;9.85;;;;;;;24.83;42.09;95541.59;6114076;28;109666;-64
2023/09/02 05:18:29;;;;;;;10.52;9.73;;;;;;;24.85;42.29;95547.44;6108465;28;108829;-66
2023/09/02 05:21:32;;;;;;;10.13;9.43;;;;;;;24.87;42.13;95539.91;6122009;28;109148;-67
2023/09/02 05:24:35;;;;;;;10.37;9.57;;;;;;;24.90;42.35;95538.50;6112820;28;109336;-65
2023/09/02 05:27:39;;;;;;;10.30;9.40;;;;;;;24.69;43.00;95538.25;6112229;28;109060;-65
2023/09/02 05:30:42;;;;;;;10.52;9.43;;;;;;;24.07;44.37;95543.63;6118339;28;110143;-66
2023/09/02 05:33:46;;;;;;;11.00;10.00;;;;;;;23.92;45.44;95547.44;6114444;28;108597;-66
2023/09/02 05:36:50;;;;;;;11.90;10.70;;;;;;;24.06;45.21;95536.69;6117553;28;109377;-66
2023/09/02 05:39:53;;;;;;;11.80;10.52;;;;;;;24.23;45.42;95546.69;6106643;28;108762;-65
2023/09/02 05:42:56;;;;;;;12.70;10.30;;;;;;;24.42;45.26;95542.69;6103285;28;108908;-66
2023/09/02 05:46:01;;;;;;;12.02;10.93;;;;;;;24.38;45.40;95543.63;6115545;28;109192;-67
2023/09/02 05:49:06;;;;;;;11.90;10.70;;;;;;;24.41;45.70;95540.34;6116425;28;108761;-66
2023/09/02 05:52:09;;;;;;;12.50;11.30;;;;;;;24.36;45.52;95549.28;6105102;28;109496;-69
2023/09/02 05:55:12;;;;;;;11.77;10.55;;;;;;;24.62;44.67;95543.25;6121098;28;109013;-67
2023/09/02 05:58:15;;;;;;;11.32;10.30;;;;;;;24.78;44.98;95547.91;6125698;28;109014;-66
2023/09/02 06:01:18;;;;;;;10.90;9.80;;;;;;;24.97;43.91;95550.31;6120402;28;109964;-66
2023/09/02 06:04:23;;;;;;;12.35;10.70;;;;;;;24.86;44.77;95559.72;6117477;28;109134;-66
2023/09/02 06:07:26;;;;;;;13.32;10.93;;;;;;;24.42;45.25;95564.09;6111868;28;108702;-68
2023/09/02 06:10:29;;;;;;;14.38;11.35;;;;;;;23.95;46.95;95557.50;6111688;28;108873;-66
2023/09/02 06:13:32;;;;;;;12.60;11.40;;;;;;;23.48;47.72;95565.00;6109987;28;108805;-66
2023/09/02 06:16:35;;;;;;;15.57;11.60;;;;;;;23.96;46.90;95569.00;6103713;28;108870;-67
2023/09/02 06:19:41;;;;;;;12.43;11.27;;;;;;;23.69;47.56;95565.38;6112258;28;109128;-68
2023/09/02 06:22:44;;;;;;;12.27;11.20;;;;;;;24.21;46.30;95565.72;6102254;28;108884;-67
2023/09/02 06:25:55;;;;;;;12.73;11.63;;;;;;;24.47;45.53;95565.84;6119423;28;108891;-66
2023/09/02 06:28:59;;;;;;;11.48;10.48;;;;;;;24.76;44.99;95562.69;6114031;28;109180;-65
2023/09/02 06:32:04;;;;;;;10.57;9.57;;;;;;;25.05;44.05;95565.63;6126392;28;108582;-67
2023/09/02 06:35:14;;;;;;;12.50;11.50;;;;;;;24.95;44.79;95568.56;6112641;28;108693;-66
2023/09/02 06:38:18;;;;;;;12.77;11.67;;;;;;;25.05;44.29;95562.94;6102239;28;109326;-66
2023/09/02 06:41:21;;;;;;;16.23;11.50;;;;;;;25.25;45.68;95561.56;6122096;28;108797;-68
2023/09/02 06:44:24;;;;;;;12.55;11.30;;;;;;;25.34;44.45;95569.59;6114372;28;108906;-64
2023/09/02 06:47:27;;;;;;;13.07;11.80;;;;;;;25.19;44.75;95567.34;6133569;28;108599;-65
2023/09/02 06:50:32;;;;;;;12.48;11.50;;;;;;;25.07;44.49;95560.75;6105075;28;109778;-64
2023/09/02 06:53:35;;;;;;;12.43;11.53;;;;;;;25.05;44.70;95560.25;6125074;28;109256;-66
2023/09/02 06:56:38;;;;;;;12.27;11.27;;;;;;;25.09;45.44;95561.22;6111885;28;109035;-66
2023/09/02 06:59:41;;;;;;;12.45;11.45;;;;;;;25.25;44.03;95564.25;6122844;28;109194;-66
2023/09/02 07:02:45;;;;;;;11.50;10.50;;;;;;;25.50;43.62;95557.34;6118765;28;108858;-65
2023/09/02 07:05:49;;;;;;;12.02;11.02;;;;;;;25.58;43.84;95561.16;6124343;28;108623;-66
2023/09/02 07:08:52;;;;;;;11.93;10.83;;;;;;;25.61;43.69;95563.97;6114383;28;108659;-66
2023/09/02 07:11:56;;;;;;;12.60;11.60;;;;;;;25.56;43.89;95564.13;6115144;28;109851;-65
2023/09/02 07:14:59;;;;;;;12.70;11.60;;;;;;;25.68;43.87;95561.59;6119368;28;108781;-65
2023/09/02 07:18:02;;;;;;;11.80;10.80;;;;;;;25.75;43.46;95560.34;6121800;28;108588;-66
2023/09/02 07:21:09;;;;;;;11.60;10.60;;;;;;;25.72;43.25;95566.34;6127848;28;108585;-64
2023/09/02 07:24:13;;;;;;;11.65;10.50;;;;;;;25.74;43.96;95562.25;6100353;28;108762;-68
2023/09/02 07:27:16;;;;;;;11.82;10.95;;;;;;;25.84;43.94;95555.75;6111575;28;108957;-67
2023/09/02 07:30:19;;;;;;;11.40;10.40;;;;;;;25.94;43.64;95563.47;6126840;28;109127;-66
2023/09/02 07:33:23;;;;;;;12.50;11.40;;;;;;;25.97;43.30;95554.81;6111548;28;108999;-66
2023/09/02 07:36:27;;;;;;;11.80;10.90;;;;;;;26.04;43.17;95552.44;6117417;28;109114;-70
2023/09/02 07:39:30;;;;;;;12.40;11.23;;;;;;;26.04;43.06;95557.81;6104408;28;108656;-72
2023/09/02 07:42:33;;;;;;;11.50;10.60;;;;;;;26.03;43.21;95548.19;6134213;28;109170;-71
2023/09/02 07:45:36;;;;;;;13.02;11.82;;;;;;;26.06;42.90;95557.50;6106451;28;108832;-71
2023/09/02 07:48:40;;;;;;;12.30;11.20;;;;;;;26.05;42.64;95548.69;6114808;28;108796;-70
2023/09/02 07:51:45;;;;;;;11.32;10.43;;;;;;;26.12;42.93;95548.97;6127876;28;108760;-71
2023/09/02 07:54:48;;;;;;;12.50;11.40;;;;;;;26.18;42.86;95552.25;6118575;28;108649;-71
2023/09/02 07:57:51;;;;;;;11.25;10.25;;;;;;;26.14;42.21;95554.78;6121891;28;110103;-71
2023/09/02 08:00:56;;;;;;;11.35;10.35;;;;;;;26.14;42.00;95546.75;6129095;28;108810;-72
2023/09/02 08:03:59;;;;;;;10.68;9.77;;;;;;;26.24;42.08;95556.38;6123983;28;108569;-71
2023/09/02 08:07:08;;;;;;;10.50;9.70;;;;;;;26.19;42.06;95561.88;6114106;28;108680;-71
2023/09/02 08:10:12;;;;;;;10.93;10.02;;;;;;;26.15;41.95;95552.91;6115192;28;108892;-71
2023/09/02 08:13:15;;;;;;;10.73;9.63;;;;;;;25.99;42.01;95563.31;6129311;28;108934;-71
2023/09/02 08:16:18;;;;;;;10.60;9.60;;;;;;;26.01;42.32;95555.75;6128143;28;108854;-71
2023/09/02 08:19:23;;;;;;;11.00;10.10;;;;;;;26.17;41.83;95559.53;6128072;28;109056;-70
2023/09/02 08:22:27;;;;;;;11.40;10.50;;;;;;;26.26;42.22;95562.97;6120174;28;109767;-71
2023/09/02 08:25:30;;;;;;;10.73;9.83;;;;;;;26.22;41.95;95561.25;6120331;28;108642;-71
2023/09/02 08:28:33;;;;;;;10.00;9.20;;;;;;;26.39;41.44;95560.44;6132728;28;108978;-71
2023/09/02 08:31:36;;;;;;;10.10;9.30;;;;;;;26.42;41.64;95559.78;6110736;28;110229;-70
2023/09/02 08:34:40;;;;;;;10.20;9.30;;;;;;;26.58;41.29;95558.94;6138123;28;109260;-71
2023/09/02 08:37:44;;;;;;;11.20;10.10;;;;;;;26.57;41.61;95557.38;6128976;28;108651;-71
2023/09/02 08:40:50;;;;;;;11.20;10.27;;;;;;;26.58;41.20;95552.78;6126304;28;108846;-71
2023/09/02 08:43:55;;;;;;;10.37;9.37;;;;;;;26.51;41.06;95547.09;6118775;28;109568;-71
2023/09/02 08:47:00;;;;;;;9.77;8.97;;;;;;;26.53;41.16;95545.66;6125463;28;108703;-65
2023/09/02 08:50:04;;;;;;;12.50;11.30;;;;;;;26.31;42.15;95542.44;6116927;28;109181;-67
2023/09/02 08:53:08;;;;;;;11.90;10.80;;;;;;;26.21;42.05;95544.38;6132131;28;109045;-66
2023/09/02 08:56:12;;;;;;;10.50;9.40;;;;;;;26.44;41.15;95547.63;6108130;28;108864;-67
2023/09/02 08:59:15;;;;;;;10.45;9.45;;;;;;;26.56;40.81;95546.94;6134366;28;109026;-66
2023/09/02 09:02:19;;;;;;;10.50;9.60;;;;;;;26.61;41.20;95533.34;6137516;28;108926;-67
2023/09/02 09:05:24;;;;;;;10.60;9.60;;;;;;;26.59;41.18;95538.25;6106717;28;108896;-67
2023/09/02 09:08:31;;;;;;;10.27;9.27;;;;;;;26.84;40.96;95534.66;6109661;28;108864;-65
2023/09/02 09:11:37;;;;;;;12.55;11.25;;;;;;;26.85;41.51;95536.25;6121690;28;108889;-67
2023/09/02 09:14:46;;;;;;;11.88;10.77;;;;;;;26.94;41.08;95530.84;6114876;28;108836;-68
2023/09/02 09:17:50;;;;;;;11.93;10.82;;;;;;;26.77;41.74;95526.34;6099169;28;108959;-68
2023/09/02 09:20:54;;;;;;;12.50;10.70;;;;;;;26.79;41.73;95526.00;6114029;28;108870;-68
2023/09/02 09:23:58;;;;;;;11.80;10.70;;;;;;;27.14;40.65;95530.06;6132352;28;108672;-69
2023/09/02 09:27:05;;;;;;;11.05;9.95;;;;;;;26.90;41.30;95521.06;6112038;28;108947;-68
2023/09/02 09:30:27;;;;;;;11.73;10.73;;;;;;;26.56;41.77;95528.16;6115706;28;109223;-69
2023/09/02 09:33:30;;;;;;;10.30;9.40;;;;;;;26.07;41.77;95519.63;6131849;28;109020;-68
2023/09/02 09:36:34;;;;;;;9.90;9.10;;;;;;;25.81;41.65;95511.59;6111965;28;110101;-67
2023/09/02 09:39:43;;;;;;;9.50;8.80;;;;;;;25.78;41.54;95519.50;6116223;28;109847;-67
2023/09/02 09:42:46;;;;;;;9.00;8.30;;;;;;;25.75;41.71;95512.88;6129743;28;109752;-66
2023/09/02 09:45:51;;;;;;;8.77;8.00;;;;;;;25.80;41.47;95501.97;6126462;28;108898;-67
2023/09/02 09:49:00;;;;;;;8.52;7.82;;;;;;;25.83;41.56;95497.88;6109680;28;109062;-66
2023/09/02 09:52:11;;;;;;;8.60;7.90;;;;;;;25.86;41.44;95502.59;6106383;28;109186;-66
2023/09/02 09:55:25;;;;;;;10.57;9.67;;;;;;;26.51;40.51;95512.22;6112401;28;109045;-66
2023/09/02 09:58:28;;;;;;;12.10;11.10;;;;;;;26.63;40.99;95504.28;6116102;28;109032;-69
2023/09/02 10:01:31;;;;;;;9.40;8.70;;;;;;;26.92;39.69;95497.34;6132215;28;108966;-67
2023/09/02 10:04:35;;;;;;;8.95;8.25;;;;;;;27.07;39.31;95494.88;6115658;28;110413;-69
2023/09/02 10:07:38;;;;;;;8.43;7.82;;;;;;;26.94;39.65;95490.53;6115770;28;109200;-68
2023/09/02 10:10:42;;;;;;;9.35;8.55;;;;;;;26.77;40.43;95490.66;6114938;28;109165;-66
2023/09/02 10:13:46;;;;;;;9.80;8.90;;;;;;;26.71;40.11;95495.41;6124395;28;109694;-68
2023/09/02 10:16:49;;;;;;;10.10;9.10;;;;;;;26.71;40.87;95487.34;6110832;28;108941;-68
2023/09/02 10:19:52;;;;;;;9.70;8.90;;;;;;;26.72;40.66;95475.50;6111669;28;108687;-69
2023/09/02 10:22:58;;;;;;;10.38;9.38;;;;;;;26.75;40.70;95482.13;6122947;28;108713;-69
2023/09/02 10:26:08;;;;;;;10.00;9.10;;;;;;;26.79;40.63;95477.69;6121420;28;109200;-69
2023/09/02 10:29:14;;;;;;;9.82;8.93;;;;;;;26.91;40.76;95476.97;6135865;28;108894;-68
2023/09/02 10:32:18;;;;;;;9.50;8.70;;;;;;;26.95;41.76;95475.22;6109527;28;108861;-68
2023/09/02 10:35:22;;;;;;;11.00;9.90;;;;;;;26.91;42.39;95471.59;6127528;28;109364;-69
2023/09/02 10:38:27;;;;;;;9.80;8.80;;;;;;;27.03;42.19;95471.66;6116697;28;108908;-69
2023/09/02 10:41:33;;;;;;;9.18;8.27;;;;;;;27.08;39.95;95466.91;6120189;28;108796;-68
2023/09/02 10:44:37;;;;;;;8.45;7.80;;;;;;;27.12;39.55;95473.19;6118215;28;109597;-70
2023/09/02 10:47:40;;;;;;;8.98;7.80;;;;;;;27.18;39.08;95463.81;6099485;28;109079;-68
2023/09/02 10:50:44;;;;;;;8.50;7.70;;;;;;;27.19;38.78;95467.28;6112851;28;108898;-67
2023/09/02 10:54:04;;;;;;;7.40;6.70;;;;;;;27.20;38.40;95463.47;6117189;28;108889;-68
2023/09/02 10:57:14;;;;;;;6.97;6.30;;;;;;;27.14;37.34;95472.84;6117043;28;109118;-68
2023/09/02 11:00:19;;;;;;;6.53;6.03;;;;;;;27.06;38.14;95471.03;6109373;28;109293;-67
2023/09/02 11:03:43;;;;;;;7.45;6.47;;;;;;;27.15;37.19;95469.84;6118170;28;109415;-68
2023/09/02 11:07:24;;;;;;;6.90;6.30;;;;;;;27.14;37.66;95470.16;6108459;28;108795;-70
2023/09/02 11:10:52;;;;;;;7.03;6.33;;;;;;;27.19;37.51;95461.91;6096705;28;108773;-70
2023/09/02 11:14:22;;;;;;;11.52;7.18;;;;;;;27.22;37.92;95460.47;6113096;28;109485;-68
2023/09/02 11:17:29;;;;;;;10.07;6.70;;;;;;;27.16;37.31;95462.56;6117646;28;108945;-68
2023/09/02 11:20:49;;;;;;;6.80;6.20;;;;;;;27.01;36.01;95461.25;6116242;28;108821;-69
2023/09/02 11:23:53;;;;;;;6.40;5.80;;;;;;;27.09;35.49;95459.63;6116660;28;108838;-66
2023/09/02 11:26:58;;;;;;;6.30;5.80;;;;;;;27.10;35.81;95448.56;6110177;28;109689;-68
2023/09/02 11:30:12;;;;;;;7.78;6.90;;;;;;;26.91;36.81;95450.91;6113390;28;108670;-69
2023/09/02 11:33:19;;;;;;;7.00;6.40;;;;;;;26.78;37.24;95444.66;6114203;28;109124;-68
2023/09/02 11:36:25;;;;;;;6.90;6.20;;;;;;;26.74;36.99;95451.03;6112590;28;108926;-68
2023/09/02 11:39:30;;;;;;;6.70;6.10;;;;;;;26.77;36.84;95437.72;6108162;28;109125;-68
2023/09/02 11:42:33;;;;;;;6.82;6.13;;;;;;;26.92;36.32;95440.94;6130906;28;108761;-68
2023/09/02 11:45:39;;;;;;;6.97;6.28;;;;;;;26.94;35.21;95436.03;6120088;28;108883;-68
2023/09/02 11:48:43;;;;;;;6.87;6.27;;;;;;;26.85;34.94;95436.88;6105097;28;108958;-68
2023/09/02 11:51:47;;;;;;;7.00;6.50;;;;;;;26.81;34.43;95425.22;6109803;28;109381;-68
2023/09/02 11:54:50;;;;;;;7.30;6.70;;;;;;;26.89;34.21;95428.19;6123681;28;108938;-68
2023/09/02 11:57:53;;;;;;;8.00;7.20;;;;;;;26.87;35.05;95431.94;6105215;28;109125;-68
2023/09/02 12:00:58;;;;;;;13.75;12.65;;;;;;;26.96;34.73;95428.44;6115139;28;109051;-68
2023/09/02 12:04:01;;;;;;;10.45;9.63;;;;;;;26.93;34.95;95424.50;6118613;28;108671;-68
2023/09/02 12:07:05;;;;;;;10.10;9.33;;;;;;;26.89;34.88;95414.75;6111473;28;109300;-68
2023/09/02 12:10:10;;;;;;;9.70;9.00;;;;;;;26.85;35.98;95418.06;6112104;28;109329;-69
2023/09/02 12:13:14;;;;;;;9.37;8.57;;;;;;;26.84;36.37;95416.50;6114881;28;109031;-68
2023/09/02 12:16:18;;;;;;;8.10;7.50;;;;;;;26.93;35.52;95407.59;6111686;28;110585;-69
2023/09/02 12:19:25;;;;;;;7.43;6.90;;;;;;;26.93;35.54;95415.66;6106408;28;109955;-69
2023/09/02 12:22:28;;;;;;;7.90;7.30;;;;;;;26.89;35.26;95406.69;6107333;28;109386;-69
2023/09/02 12:25:33;;;;;;;7.68;7.07;;;;;;;26.84;35.96;95404.97;6122541;28;108625;-69
2023/09/02 12:28:37;;;;;;;9.55;7.57;;;;;;;26.93;37.15;95396.88;6115071;28;108909;-70
2023/09/02 12:31:43;;;;;;;8.80;7.13;;;;;;;26.98;37.23;95404.72;6113385;28;108898;-70
2023/09/02 12:34:47;;;;;;;7.90;7.20;;;;;;;27.07;37.69;95402.75;6120324;28;108724;-68
2023/09/02 12:38:00;;;;;;;8.73;7.85;;;;;;;27.09;37.52;95409.38;6111988;28;109053;-71
2023/09/02 12:41:03;;;;;;;7.80;7.00;;;;;;;27.13;38.13;95407.59;6106875;28;109040;-68
2023/09/02 12:44:13;;;;;;;8.32;7.55;;;;;;;27.11;37.61;95409.81;6124907;28;109274;-69
2023/09/02 12:47:20;;;;;;;8.40;7.60;;;;;;;27.11;37.99;95409.03;6133853;28;108748;-68
2023/09/02 12:50:24;;;;;;;7.40;6.80;;;;;;;27.11;37.47;95398.28;6113983;28;108684;-69
2023/09/02 12:53:27;;;;;;;8.15;7.55;;;;;;;27.12;37.21;95394.47;6117233;28;110605;-69
2023/09/02 12:56:31;;;;;;;7.90;7.30;;;;;;;27.14;37.41;95397.63;6132652;28;109238;-69
2023/09/02 12:59:34;;;;;;;7.80;7.20;;;;;;;27.15;37.90;95385.75;6117728;28;108871;-69
2023/09/02 13:02:38;;;;;;;8.55;7.85;;;;;;;27.16;37.65;95387.34;6116428;28;109237;-69
2023/09/02 13:05:42;;;;;;;9.07;8.27;;;;;;;27.18;38.22;95393.16;6126871;28;109059;-70
2023/09/02 13:08:45;;;;;;;8.53;7.80;;;;;;;27.17;38.22;95395.06;6121005;28;108995;-69
2023/09/02 13:11:48;;;;;;;8.25;7.55;;;;;;;27.14;37.82;95386.88;6123367;28;108822;-69
2023/09/02 13:14:51;;;;;;;8.15;7.55;;;;;;;27.18;38.36;95383.19;6129070;28;108733;-68
2023/09/02 13:17:57;;;;;;;8.20;7.60;;;;;;;27.16;37.83;95384.63;6117218;28;108883;-69
2023/09/02 13:21:00;;;;;;;8.48;7.78;;;;;;;27.17;38.20;95381.63;6126632;28;109437;-70
2023/09/02 13:24:04;;;;;;;8.25;7.55;;;;;;;27.17;37.63;95381.63;6131633;28;108726;-69
2023/09/02 13:27:09;;;;;;;7.80;7.20;;;;;;;27.13;37.23;95374.56;6103869;28;110089;-71
2023/09/02 13:30:13;;;;;;;10.70;9.80;;;;;;;27.03;37.44;95373.06;6120692;28;109321;-68
2023/09/02 13:33:17;;;;;;;10.80;10.00;;;;;;;26.96;36.43;95372.03;6118066;28;108771;-70
2023/09/02 13:36:21;;;;;;;9.27;8.48;;;;;;;27.00;36.55;95364.88;6113393;28;108587;-70
2023/09/02 13:39:24;;;;;;;7.90;7.20;;;;;;;26.98;35.37;95369.78;6100141;28;110137;-71
2023/09/02 13:42:28;;;;;;;7.40;6.70;;;;;;;27.03;35.69;95380.31;6129242;28;108917;-70
2023/09/02 13:45:34;;;;;;;7.43;6.85;;;;;;;27.04;35.34;95374.63;6099289;28;109188;-69
2023/09/02 13:48:39;;;;;;;7.55;6.95;;;;;;;27.06;35.57;95371.63;6119904;28;108850;-68
2023/09/02 13:51:42;;;;;;;8.20;6.80;;;;;;;26.98;35.48;95378.63;6112659;28;109460;-69
2023/09/02 13:54:45;;;;;;;7.50;6.90;;;;;;;27.04;35.60;95377.31;6135206;28;108890;-69
2023/09/02 13:57:49;;;;;;;9.00;8.10;;;;;;;27.03;35.58;95383.00;6122539;28;108860;-69
2023/09/02 14:00:53;;;;;;;8.00;7.30;;;;;;;27.00;35.07;95381.00;6113220;28;109062;-67
2023/09/02 14:03:58;;;;;;;7.38;6.85;;;;;;;27.01;35.33;95379.88;6108677;28;108920;-70
2023/09/02 14:07:01;;;;;;;7.90;7.10;;;;;;;26.95;35.23;95379.28;6097988;28;109765;-67
2023/09/02 14:10:07;;;;;;;19.70;15.15;;;;;;;26.98;35.13;95369.78;6117467;28;108834;-69